createdAt,value
2018-07-27T00:02:20.188Z,45.65
2018-07-27T00:04:48.485Z,46.12
2018-07-27T00:07:16.776Z,45.80
2018-07-27T00:09:44.976Z,45.57
2018-07-27T00:12:13.205Z,45.54
2018-07-27T00:14:41.424Z,45.45
2018-07-27T00:17:09.648Z,45.55
2018-07-27T00:19:37.869Z,45.58
2018-07-27T00:22:06.144Z,45.91
2018-07-27T00:24:34.344Z,45.27
2018-07-27T00:27:02.557Z,45.52
2018-07-27T00:29:30.871Z,45.58
2018-07-27T00:31:59.082Z,45.84
2018-07-27T00:34:27.280Z,45.82
2018-07-27T00:36:55.580Z,45.19
2018-07-27T00:39:23.788Z,44.75
2018-07-27T00:41:51.996Z,45.75
2018-07-27T00:44:20.205Z,45.31
2018-07-27T00:46:48.420Z,46.12
2018-07-27T00:49:16.720Z,45.58
2018-07-27T00:51:44.916Z,45.69
2018-07-27T00:54:13.152Z,45.90
2018-07-27T00:56:41.357Z,45.51
2018-07-27T00:59:09.620Z,45.92
2018-07-27T01:01:37.895Z,45.46
2018-07-27T01:04:06.120Z,45.48
2018-07-27T01:06:34.352Z,46.07
2018-07-27T01:09:02.574Z,46.01
2018-07-27T01:11:30.785Z,46.09
2018-07-27T01:13:58.996Z,46.06
2018-07-27T01:16:27.206Z,46.19
2018-07-27T01:18:55.488Z,45.55
2018-07-27T01:21:23.733Z,46.39
2018-07-27T01:23:51.932Z,45.74
2018-07-27T01:26:20.145Z,45.42
2018-07-27T01:28:48.355Z,45.88
2018-07-27T01:31:16.589Z,45.78
2018-07-27T01:33:44.784Z,44.47
2018-07-27T01:36:12.980Z,45.40
2018-07-27T01:38:41.192Z,44.88
2018-07-27T01:41:09.412Z,45.71
2018-07-27T01:43:37.636Z,45.26
2018-07-27T01:46:05.944Z,44.89
2018-07-27T01:48:34.155Z,44.51
2018-07-27T01:51:02.441Z,45.58
2018-07-27T01:53:30.596Z,44.89
2018-07-27T01:55:58.851Z,45.29
2018-07-27T01:58:27.065Z,45.08
2018-07-27T02:00:55.304Z,44.91
2018-07-27T02:03:23.511Z,44.99
2018-07-27T02:05:51.766Z,45.82
2018-07-27T02:08:19.960Z,45.34
2018-07-27T02:10:48.184Z,44.89
2018-07-27T02:13:16.392Z,46.02
2018-07-27T02:15:44.600Z,45.79
2018-07-27T02:18:12.821Z,46.37
2018-07-27T02:20:41.029Z,46.39
2018-07-27T02:23:09.244Z,45.94
2018-07-27T02:25:37.456Z,45.70
2018-07-27T02:28:05.725Z,46.39
2018-07-27T02:30:33.949Z,46.27
2018-07-27T02:33:02.172Z,46.45
2018-07-27T02:35:30.376Z,46.45
2018-07-27T02:37:58.577Z,46.13
2018-07-27T02:40:26.797Z,45.96
2018-07-27T02:42:55.028Z,45.73
2018-07-27T02:45:23.277Z,46.15
2018-07-27T02:47:51.488Z,46.79
2018-07-27T02:50:20.600Z,46.42
2018-07-27T02:52:48.812Z,46.44
2018-07-27T02:55:17.056Z,46.25
2018-07-27T02:57:45.468Z,46.46
2018-07-27T03:00:13.704Z,46.52
2018-07-27T03:02:41.920Z,46.44
2018-07-27T03:05:10.149Z,46.25
2018-07-27T03:07:38.365Z,46.99
2018-07-27T03:10:06.917Z,46.72
2018-07-27T03:12:35.184Z,46.24
2018-07-27T03:15:03.496Z,46.93
2018-07-27T03:17:31.700Z,46.79
2018-07-27T03:19:59.921Z,46.86
2018-07-27T03:22:28.136Z,46.99
2018-07-27T03:24:56.332Z,47.72
2018-07-27T03:27:24.618Z,47.86
2018-07-27T03:29:52.817Z,47.54
2018-07-27T03:32:21.040Z,46.94
2018-07-27T03:34:49.300Z,47.99
2018-07-27T03:37:17.508Z,47.21
2018-07-27T03:39:45.726Z,48.19
2018-07-27T03:42:13.957Z,47.68
2018-07-27T03:44:42.172Z,48.12
2018-07-27T03:47:10.436Z,48.03
2018-07-27T03:49:38.660Z,47.99
2018-07-27T03:52:06.948Z,47.49
2018-07-27T03:54:35.155Z,48.75
2018-07-27T03:57:03.408Z,47.98
2018-07-27T03:59:31.633Z,47.82
2018-07-27T04:01:59.876Z,48.34
2018-07-27T04:04:28.098Z,47.53
2018-07-27T04:06:56.432Z,48.32
2018-07-27T04:09:24.636Z,48.06
2018-07-27T04:11:52.953Z,47.48
2018-07-27T04:14:21.177Z,47.29
2018-07-27T04:16:49.404Z,48.42
2018-07-27T04:19:17.628Z,48.12
2018-07-27T04:21:45.840Z,47.30
2018-07-27T04:24:14.080Z,47.93
2018-07-27T04:26:42.313Z,48.21
2018-07-27T04:29:10.537Z,47.29
2018-07-27T04:31:38.733Z,47.69
2018-07-27T04:34:06.981Z,48.11
2018-07-27T04:36:35.236Z,48.14
2018-07-27T04:39:04.229Z,48.15
2018-07-27T04:41:32.464Z,48.43
2018-07-27T04:44:00.667Z,48.30
2018-07-27T04:46:28.877Z,48.11
2018-07-27T04:48:57.085Z,48.88
2018-07-27T04:51:25.325Z,47.94
2018-07-27T04:53:53.550Z,48.97
2018-07-27T04:56:21.773Z,49.24
2018-07-27T04:58:50.013Z,49.44
2018-07-27T05:01:18.236Z,49.35
2018-07-27T05:03:46.465Z,49.10
2018-07-27T05:06:14.684Z,48.88
2018-07-27T05:08:48.344Z,49.06
2018-07-27T05:11:16.610Z,49.55
2018-07-27T05:13:44.836Z,48.88
2018-07-27T05:16:13.196Z,48.75
2018-07-27T05:18:41.413Z,48.31
2018-07-27T05:21:09.620Z,48.23
2018-07-27T05:23:37.831Z,48.12
2018-07-27T05:26:06.140Z,48.38
2018-07-27T05:28:34.352Z,48.37
2018-07-27T05:31:02.588Z,48.61
2018-07-27T05:33:31.660Z,48.56
2018-07-27T05:35:59.884Z,48.98
2018-07-27T05:38:28.129Z,50.41
2018-07-27T05:40:56.349Z,49.59
2018-07-27T05:43:24.573Z,49.52
2018-07-27T05:45:53.237Z,53.73
2018-07-27T05:48:21.469Z,63.24
2018-07-27T05:50:49.692Z,67.11
2018-07-27T05:53:17.968Z,67.59
2018-07-27T05:55:46.200Z,67.54
2018-07-27T05:58:14.448Z,68.05
2018-07-27T06:00:42.652Z,65.84
2018-07-27T06:03:10.866Z,67.11
2018-07-27T06:05:39.125Z,65.92
2018-07-27T06:08:07.384Z,64.90
2018-07-27T06:10:35.640Z,63.46
2018-07-27T06:13:03.893Z,62.50
2018-07-27T06:15:32.104Z,62.15
2018-07-27T06:18:00.355Z,64.50
2018-07-27T06:20:28.584Z,64.03
2018-07-27T06:22:56.835Z,64.14
2018-07-27T06:25:25.051Z,62.81
2018-07-27T06:27:53.252Z,62.97
2018-07-27T06:30:21.476Z,64.10
2018-07-27T06:32:49.682Z,61.65
2018-07-27T06:35:17.912Z,59.56
2018-07-27T06:37:46.129Z,60.80
2018-07-27T06:40:14.356Z,62.69
2018-07-27T06:42:42.600Z,63.01
2018-07-27T06:45:11.328Z,58.83
2018-07-27T06:47:39.498Z,59.63
2018-07-27T06:50:07.752Z,60.19
2018-07-27T06:52:36.042Z,60.14
2018-07-27T06:55:04.273Z,60.36
2018-07-27T06:57:32.545Z,58.91
2018-07-27T07:00:00.748Z,58.68
2018-07-27T07:02:28.973Z,58.24
2018-07-27T07:04:57.204Z,58.27
2018-07-27T07:07:25.455Z,58.29
2018-07-27T07:09:53.676Z,59.15
2018-07-27T07:12:21.911Z,58.88
2018-07-27T07:14:53.080Z,56.47
2018-07-27T07:17:21.301Z,57.29
2018-07-27T07:19:49.560Z,56.60
2018-07-27T07:22:17.765Z,55.37
2018-07-27T07:24:45.991Z,52.50
2018-07-27T07:27:14.188Z,51.04
2018-07-27T07:29:42.760Z,51.89
2018-07-27T07:32:11.013Z,50.73
2018-07-27T07:34:39.240Z,48.04
2018-07-27T07:37:07.517Z,49.74
2018-07-27T07:39:35.768Z,49.41
2018-07-27T07:42:04.156Z,47.44
2018-07-27T07:44:32.384Z,48.31
2018-07-27T07:47:00.629Z,46.73
2018-07-27T07:49:28.891Z,47.45
2018-07-27T07:51:57.040Z,48.33
2018-07-27T07:54:25.328Z,47.21
2018-07-27T07:56:53.526Z,46.34
2018-07-27T07:59:21.749Z,46.32
2018-07-27T08:01:49.973Z,45.66
2018-07-27T08:04:18.205Z,45.64
2018-07-27T08:06:46.391Z,45.02
2018-07-27T08:09:14.580Z,44.53
2018-07-27T08:11:42.841Z,44.67
2018-07-27T08:14:11.029Z,43.76
2018-07-27T08:16:39.268Z,45.64
2018-07-27T08:19:07.526Z,44.36
2018-07-27T08:21:35.740Z,44.87
2018-07-27T08:24:04.009Z,44.54
2018-07-27T08:26:37.800Z,44.74
2018-07-27T08:29:06.297Z,43.74
2018-07-27T08:31:34.508Z,44.63
2018-07-27T08:34:02.744Z,44.02
2018-07-27T08:36:31.452Z,44.15
2018-07-27T08:38:59.697Z,43.17
2018-07-27T08:41:27.976Z,42.62
2018-07-27T08:43:56.225Z,42.36
2018-07-27T08:46:24.480Z,42.86
2018-07-27T08:48:52.712Z,43.25
2018-07-27T08:51:20.908Z,42.14
2018-07-27T08:53:49.121Z,43.15
2018-07-27T08:56:17.342Z,41.96
2018-07-27T08:58:45.701Z,41.53
2018-07-27T09:01:13.933Z,42.22
2018-07-27T09:03:42.136Z,41.06
2018-07-27T09:06:10.349Z,40.38
2018-07-27T09:08:38.568Z,40.00
2018-07-27T09:11:06.792Z,39.70
2018-07-27T09:13:35.005Z,38.09
2018-07-27T09:16:03.220Z,37.25
2018-07-27T09:18:31.438Z,37.56
2018-07-27T09:20:59.668Z,37.44
2018-07-27T09:23:27.938Z,37.03
2018-07-27T09:25:56.625Z,38.06
2018-07-27T09:28:24.824Z,38.59
2018-07-27T09:30:53.140Z,38.55
2018-07-27T09:33:21.408Z,38.20
2018-07-27T09:35:49.744Z,38.88
2018-07-27T09:38:17.965Z,38.13
2018-07-27T09:40:46.485Z,38.00
2018-07-27T09:43:14.704Z,38.09
2018-07-27T09:45:43.134Z,37.80
2018-07-27T09:48:11.401Z,36.94
2018-07-27T09:50:39.812Z,37.67
2018-07-27T09:53:08.180Z,37.57
2018-07-27T09:55:36.396Z,37.97
2018-07-27T09:58:04.673Z,37.84
2018-07-27T10:00:38.142Z,36.86
2018-07-27T10:03:06.438Z,37.46
2018-07-27T10:05:34.671Z,37.64
2018-07-27T10:08:02.873Z,37.58
2018-07-27T10:10:31.089Z,37.25
2018-07-27T10:12:59.381Z,37.44
2018-07-27T10:15:27.636Z,37.67
2018-07-27T10:17:55.869Z,37.57
2018-07-27T10:20:24.084Z,37.38
2018-07-27T10:22:52.284Z,37.08
2018-07-27T10:25:20.508Z,37.24
2018-07-27T10:27:48.749Z,36.93
2018-07-27T10:30:17.032Z,36.72
2018-07-27T10:32:45.328Z,35.69
2018-07-27T10:35:13.565Z,34.99
2018-07-27T10:37:41.808Z,35.40
2018-07-27T10:40:10.716Z,35.82
2018-07-27T10:42:38.949Z,35.00
2018-07-27T10:45:07.603Z,33.99
2018-07-27T10:47:36.284Z,33.54
2018-07-27T10:50:04.996Z,31.84
2018-07-27T10:52:33.220Z,32.14
2018-07-27T10:55:01.493Z,33.44
2018-07-27T10:57:29.740Z,32.84
2018-07-27T10:59:58.233Z,31.78
2018-07-27T11:02:26.658Z,31.01
2018-07-27T11:04:54.848Z,30.47
2018-07-27T11:07:23.072Z,30.16
2018-07-27T11:09:51.503Z,29.83
2018-07-27T11:12:19.673Z,28.17
2018-07-27T11:14:47.876Z,27.22
2018-07-27T11:17:16.169Z,27.18
2018-07-27T11:19:44.300Z,28.13
2018-07-27T11:22:12.520Z,27.26
2018-07-27T11:24:40.769Z,26.92
2018-07-27T11:27:08.985Z,27.48
2018-07-27T11:29:37.184Z,27.17
2018-07-27T11:32:05.432Z,25.94
2018-07-27T11:34:33.649Z,25.99
2018-07-27T11:37:01.883Z,26.02
2018-07-27T11:39:30.061Z,24.16
2018-07-27T11:41:58.273Z,23.75
2018-07-27T11:44:26.509Z,24.34
2018-07-27T11:46:54.728Z,23.64
2018-07-27T11:49:23.032Z,23.83
2018-07-27T11:51:51.248Z,23.36
2018-07-27T11:54:19.488Z,23.01
2018-07-27T11:56:47.708Z,23.97
2018-07-27T11:59:15.920Z,24.46
2018-07-27T12:01:44.160Z,23.40
2018-07-27T12:04:12.345Z,21.90
2018-07-27T12:06:40.580Z,22.54
2018-07-27T12:09:10.431Z,23.24
2018-07-27T12:11:38.656Z,22.58
2018-07-27T12:14:07.109Z,22.11
2018-07-27T12:16:35.140Z,21.51
2018-07-27T12:19:03.580Z,21.30
2018-07-27T12:21:32.156Z,21.25
2018-07-27T12:24:00.680Z,22.32
2018-07-27T12:26:28.882Z,22.17
2018-07-27T12:28:57.128Z,22.90
2018-07-27T12:31:25.340Z,23.02
2018-07-27T12:33:54.020Z,22.27
2018-07-27T12:36:22.216Z,21.49
2018-07-27T12:38:50.446Z,21.49
2018-07-27T12:41:18.679Z,20.76
2018-07-27T12:43:46.900Z,20.61
2018-07-27T12:46:15.258Z,21.72
2018-07-27T12:48:43.449Z,20.88
2018-07-27T12:51:11.683Z,21.04
2018-07-27T12:53:39.884Z,20.87
2018-07-27T12:56:08.088Z,20.83
2018-07-27T12:58:36.296Z,21.79
2018-07-27T13:01:04.636Z,21.27
2018-07-27T13:03:32.877Z,21.28
2018-07-27T13:06:01.112Z,21.04
2018-07-27T13:08:29.400Z,21.29
2018-07-27T13:10:57.637Z,20.90
2018-07-27T13:13:25.849Z,20.83
2018-07-27T13:15:54.083Z,21.22
2018-07-27T13:18:22.361Z,20.69
2018-07-27T13:20:56.037Z,21.49
2018-07-27T13:23:24.917Z,19.77
2018-07-27T13:28:34.248Z,19.59
2018-07-27T13:31:02.544Z,19.58
2018-07-27T13:33:31.141Z,20.43
2018-07-27T13:38:27.978Z,21.09
2018-07-27T13:40:56.251Z,20.81
2018-07-27T13:43:24.516Z,20.57
2018-07-27T13:45:52.773Z,21.46
2018-07-27T13:48:21.960Z,21.37
2018-07-27T13:50:50.200Z,20.79
2018-07-27T13:53:18.428Z,19.69
2018-07-27T13:55:46.644Z,20.23
2018-07-27T13:58:14.903Z,19.30
2018-07-27T14:00:43.116Z,20.37
2018-07-27T14:03:11.341Z,20.87
2018-07-27T14:05:39.552Z,20.46
2018-07-27T14:08:07.832Z,18.92
2018-07-27T14:10:36.096Z,19.36
2018-07-27T14:13:04.353Z,18.97
2018-07-27T14:15:32.697Z,18.91
2018-07-27T14:18:00.908Z,19.59
2018-07-27T14:20:29.156Z,19.47
2018-07-27T14:22:57.342Z,19.23
2018-07-27T14:25:25.552Z,20.08
2018-07-27T14:27:53.784Z,20.19
2018-07-27T14:30:22.018Z,20.38
2018-07-27T14:32:50.204Z,19.94
2018-07-27T14:35:18.448Z,18.69
2018-07-27T14:37:46.773Z,18.36
2018-07-27T14:40:14.993Z,18.32
2018-07-27T14:42:43.184Z,19.41
2018-07-27T14:45:11.412Z,19.20
2018-07-27T14:47:39.648Z,20.10
2018-07-27T14:50:07.912Z,20.02
2018-07-27T14:52:36.185Z,21.25
2018-07-27T14:55:04.348Z,19.77
2018-07-27T14:57:32.568Z,20.60
2018-07-27T15:00:00.784Z,20.36
2018-07-27T15:02:29.004Z,20.57
2018-07-27T15:04:57.330Z,21.11
2018-07-27T15:07:25.505Z,20.03
2018-07-27T15:09:53.784Z,19.38
2018-07-27T15:12:22.021Z,20.59
2018-07-27T15:14:50.244Z,20.08
2018-07-27T15:17:18.480Z,19.15
2018-07-27T15:19:46.693Z,18.87
2018-07-27T15:22:14.897Z,19.41
2018-07-27T15:24:43.130Z,20.52
2018-07-27T15:27:11.349Z,19.43
2018-07-27T15:29:39.565Z,20.27
2018-07-27T15:32:07.828Z,19.68
2018-07-27T15:34:36.041Z,19.87
2018-07-27T15:37:04.292Z,18.67
2018-07-27T15:39:32.570Z,18.64
2018-07-27T15:42:00.760Z,19.56
2018-07-27T15:44:28.996Z,18.98
2018-07-27T15:46:57.224Z,19.19
2018-07-27T15:49:25.554Z,20.05
2018-07-27T15:51:53.753Z,20.18
2018-07-27T15:54:21.980Z,20.78
2018-07-27T15:56:50.181Z,20.85
2018-07-27T15:59:18.393Z,20.56
2018-07-27T16:01:46.584Z,20.30
2018-07-27T16:04:14.824Z,20.26
2018-07-27T16:06:43.036Z,20.63
2018-07-27T16:09:11.568Z,21.24
2018-07-27T16:11:39.800Z,20.05
2018-07-27T16:14:08.084Z,19.27
2018-07-27T16:16:36.352Z,18.48
2018-07-27T16:19:04.559Z,17.51
2018-07-27T16:21:32.765Z,17.51
2018-07-27T16:24:00.972Z,17.50
2018-07-27T16:26:29.221Z,17.32
2018-07-27T16:28:57.857Z,17.22
2018-07-27T16:31:26.088Z,17.15
2018-07-27T16:33:54.428Z,16.66
2018-07-27T16:36:22.648Z,15.87
2018-07-27T16:38:50.840Z,15.43
2018-07-27T16:41:19.150Z,15.99
2018-07-27T16:43:47.379Z,15.17
2018-07-27T16:46:15.653Z,15.43
2018-07-27T16:48:43.862Z,16.61
2018-07-27T16:51:12.064Z,17.07
2018-07-27T16:53:40.262Z,16.46
2018-07-27T16:56:08.492Z,16.86
2018-07-27T16:58:36.700Z,17.99
2018-07-27T17:01:04.917Z,18.70
2018-07-27T17:03:33.281Z,19.19
2018-07-27T17:06:01.525Z,20.18
2018-07-27T17:08:29.972Z,20.22
2018-07-27T17:10:58.200Z,20.69
2018-07-27T17:13:26.418Z,21.08
2018-07-27T17:15:54.624Z,21.14
2018-07-27T17:18:22.832Z,21.75
2018-07-27T17:20:51.072Z,23.29
2018-07-27T17:23:19.320Z,22.48
2018-07-27T17:25:47.587Z,21.98
2018-07-27T17:28:15.770Z,21.71
2018-07-27T17:30:43.980Z,22.40
2018-07-27T17:33:12.241Z,22.21
2018-07-27T17:35:40.444Z,22.90
2018-07-27T17:38:08.948Z,22.47
2018-07-27T17:40:37.168Z,23.06
2018-07-27T17:43:05.606Z,22.50
2018-07-27T17:45:33.752Z,25.17
2018-07-27T17:48:02.016Z,24.78
2018-07-27T17:50:30.320Z,24.28
2018-07-27T17:52:59.465Z,25.75
2018-07-27T17:55:27.676Z,26.65
2018-07-27T17:57:56.536Z,26.73
2018-07-27T18:00:25.140Z,26.80
2018-07-27T18:02:53.524Z,26.22
2018-07-27T18:05:22.132Z,26.44
2018-07-27T18:07:50.481Z,28.21
2018-07-27T18:10:18.609Z,27.58
2018-07-27T18:12:46.865Z,27.11
2018-07-27T18:15:15.061Z,26.12
2018-07-27T18:17:43.301Z,25.93
2018-07-27T18:20:12.482Z,28.58
2018-07-27T18:22:40.744Z,28.38
2018-07-27T18:25:12.730Z,27.51
2018-07-27T18:27:40.900Z,27.02
2018-07-27T18:30:10.336Z,28.73
2018-07-27T18:32:38.713Z,28.07
2018-07-27T18:35:07.532Z,28.08
2018-07-27T18:37:35.820Z,27.25
2018-07-27T18:40:04.158Z,28.16
2018-07-27T18:42:32.428Z,28.19
2018-07-27T18:45:00.632Z,29.84
2018-07-27T18:47:28.844Z,29.89
2018-07-27T18:49:57.048Z,29.23
2018-07-27T18:52:25.264Z,29.50
2018-07-27T18:54:53.552Z,29.77
2018-07-27T18:57:21.808Z,29.40
2018-07-27T18:59:50.006Z,28.85
2018-07-27T19:02:18.202Z,29.10
2018-07-27T19:04:46.422Z,28.96
2018-07-27T19:07:14.640Z,29.46
2018-07-27T19:09:42.872Z,30.03
2018-07-27T19:12:11.119Z,29.31
2018-07-27T19:14:39.356Z,29.77
2018-07-27T19:17:07.600Z,30.27
2018-07-27T19:19:35.820Z,29.55
2018-07-27T19:22:04.092Z,30.09
2018-07-27T19:24:32.312Z,30.14
2018-07-27T19:27:00.635Z,29.01
2018-07-27T19:29:28.896Z,30.11
2018-07-27T19:31:57.116Z,29.91
2018-07-27T19:34:25.420Z,30.22
2018-07-27T19:36:53.628Z,30.48
2018-07-27T19:39:21.855Z,30.39
2018-07-27T19:41:50.100Z,31.70
2018-07-27T19:44:18.401Z,30.74
2018-07-27T19:46:46.573Z,31.22
2018-07-27T19:49:14.854Z,31.98
2018-07-27T19:51:43.116Z,31.62
2018-07-27T19:54:11.353Z,31.66
2018-07-27T19:56:39.589Z,32.50
2018-07-27T19:59:07.821Z,31.18
2018-07-27T20:01:36.032Z,32.02
2018-07-27T20:04:04.301Z,33.14
2018-07-27T20:06:32.544Z,31.84
2018-07-27T20:09:00.784Z,33.80
2018-07-27T20:11:29.048Z,33.84
2018-07-27T20:13:57.257Z,33.74
2018-07-27T20:16:25.504Z,33.38
2018-07-27T20:18:53.792Z,33.35
2018-07-27T20:21:21.997Z,34.37
2018-07-27T20:23:50.228Z,32.81
2018-07-27T20:26:18.500Z,34.68
2018-07-27T20:28:46.709Z,33.77
2018-07-27T20:31:14.934Z,34.08
2018-07-27T20:33:43.148Z,35.21
2018-07-27T20:36:11.353Z,33.51
2018-07-27T20:38:39.574Z,34.48
2018-07-27T20:41:07.977Z,34.50
2018-07-27T20:43:36.196Z,35.05
2018-07-27T20:46:04.453Z,35.30
2018-07-27T20:48:32.748Z,35.63
2018-07-27T20:51:00.903Z,35.76
2018-07-27T20:53:29.141Z,35.45
2018-07-27T20:55:57.378Z,35.60
2018-07-27T20:58:25.605Z,36.61
2018-07-27T21:00:53.828Z,35.73
2018-07-27T21:03:22.033Z,36.17
2018-07-27T21:05:50.240Z,36.70
2018-07-27T21:08:18.449Z,36.79
2018-07-27T21:10:46.680Z,36.50
2018-07-27T21:13:14.900Z,36.52
2018-07-27T21:15:43.128Z,36.89
2018-07-27T21:18:11.333Z,37.22
2018-07-27T21:20:39.544Z,36.84
2018-07-27T21:23:08.081Z,37.32
2018-07-27T21:25:36.296Z,36.77
2018-07-27T21:28:04.572Z,36.86
2018-07-27T21:30:32.800Z,37.25
2018-07-27T21:33:01.013Z,37.24
2018-07-27T21:35:29.273Z,37.30
2018-07-27T21:37:57.505Z,37.63
2018-07-27T21:40:25.721Z,36.87
2018-07-27T21:42:53.932Z,36.85
2018-07-27T21:45:22.169Z,36.95
2018-07-27T21:47:50.397Z,37.27
2018-07-27T21:50:18.664Z,37.46
2018-07-27T21:52:46.880Z,36.80
2018-07-27T21:55:15.104Z,36.57
2018-07-27T21:57:43.394Z,36.58
2018-07-27T22:00:11.697Z,37.22
2018-07-27T22:02:39.944Z,36.16
2018-07-27T22:05:08.273Z,37.19
2018-07-27T22:07:36.868Z,36.76
2018-07-27T22:10:05.391Z,36.91
2018-07-27T22:12:33.644Z,36.00
2018-07-27T22:15:01.857Z,36.69
2018-07-27T22:17:30.102Z,36.55
2018-07-27T22:19:58.332Z,36.78
2018-07-27T22:22:26.539Z,36.75
2018-07-27T22:24:54.754Z,37.26
2018-07-27T22:27:22.977Z,37.19
2018-07-27T22:29:51.217Z,37.80
2018-07-27T22:32:19.520Z,37.81
2018-07-27T22:34:47.668Z,37.49
2018-07-27T22:37:15.922Z,37.76
2018-07-27T22:39:44.121Z,37.57
2018-07-27T22:42:12.344Z,37.56
2018-07-27T22:44:40.576Z,38.28
2018-07-27T22:47:08.812Z,38.12
2018-07-27T22:49:37.034Z,38.04
2018-07-27T22:52:05.280Z,38.22
2018-07-27T22:54:33.564Z,38.41
2018-07-27T22:57:01.772Z,38.73
2018-07-27T22:59:29.988Z,38.84
2018-07-27T23:01:58.208Z,39.18
2018-07-27T23:04:26.440Z,38.70
2018-07-27T23:06:54.660Z,38.99
2018-07-27T23:09:22.870Z,38.71
2018-07-27T23:11:51.089Z,39.36
2018-07-27T23:14:19.293Z,38.81
2018-07-27T23:16:47.576Z,38.50
2018-07-27T23:19:15.796Z,38.32
2018-07-27T23:21:44.025Z,39.11
2018-07-27T23:24:12.361Z,39.07
2018-07-27T23:26:40.647Z,39.01
2018-07-27T23:29:08.880Z,39.34
2018-07-27T23:31:37.133Z,39.27
2018-07-27T23:34:05.440Z,39.46
2018-07-27T23:36:33.684Z,39.35
2018-07-27T23:39:01.997Z,39.93
2018-07-27T23:41:30.220Z,39.84
2018-07-27T23:43:58.438Z,39.67
2018-07-27T23:46:26.645Z,39.87
2018-07-27T23:48:54.904Z,39.62
2018-07-27T23:51:23.136Z,39.92
2018-07-27T23:53:51.384Z,40.07
2018-07-27T23:56:19.740Z,39.68
2018-07-27T23:58:47.988Z,39.77
